createdAt,value
2023-05-19T00:00:18.625Z,155.71
2023-05-19T00:01:18.618Z,157.71
2023-05-19T00:02:18.636Z,156.25
2023-05-19T00:03:18.652Z,157.83
2023-05-19T00:04:18.631Z,155.97
2023-05-19T00:05:18.649Z,156.34
2023-05-19T00:06:18.724Z,155.70
2023-05-19T00:07:18.623Z,158.27
2023-05-19T00:08:18.624Z,164.99
2023-05-19T00:09:18.612Z,163.27
2023-05-19T00:10:18.625Z,162.13
2023-05-19T00:11:18.625Z,162.00
2023-05-19T00:12:18.629Z,159.61
2023-05-19T00:13:18.606Z,160.72
2023-05-19T00:14:18.611Z,160.38
2023-05-19T00:15:18.634Z,159.26
2023-05-19T00:16:18.701Z,158.38
2023-05-19T00:17:18.612Z,159.20
2023-05-19T00:18:18.634Z,158.80
2023-05-19T00:19:18.627Z,159.74
2023-05-19T00:20:18.624Z,162.57
2023-05-19T00:21:18.634Z,163.02
2023-05-19T00:22:18.643Z,162.28
2023-05-19T00:23:18.612Z,162.04
2023-05-19T00:24:18.622Z,158.85
2023-05-19T00:25:18.635Z,160.67
2023-05-19T00:26:18.608Z,160.77
2023-05-19T00:27:18.702Z,162.48
2023-05-19T00:28:18.614Z,164.01
2023-05-19T00:29:18.701Z,162.16
2023-05-19T00:30:18.609Z,158.26
2023-05-19T00:31:18.634Z,161.06
2023-05-19T00:32:18.655Z,160.14
2023-05-19T00:33:18.597Z,160.91
2023-05-19T00:34:18.604Z,160.96
2023-05-19T00:35:18.609Z,162.25
2023-05-19T00:36:18.603Z,162.62
2023-05-19T00:37:18.619Z,160.26
2023-05-19T00:38:18.586Z,165.14
2023-05-19T00:39:18.602Z,167.99
2023-05-19T00:40:18.598Z,165.27
2023-05-19T00:41:18.595Z,167.87
2023-05-19T00:42:18.593Z,167.84
2023-05-19T00:43:18.593Z,168.67
2023-05-19T00:44:18.575Z,172.52
2023-05-19T00:45:18.589Z,170.86
2023-05-19T00:46:18.615Z,171.12
2023-05-19T00:47:18.573Z,169.31
2023-05-19T00:48:18.586Z,172.48
2023-05-19T00:49:18.595Z,172.34
2023-05-19T00:50:18.577Z,170.96
2023-05-19T00:51:18.594Z,172.59
2023-05-19T00:52:18.620Z,169.74
2023-05-19T00:53:18.579Z,169.84
2023-05-19T00:54:18.580Z,174.06
2023-05-19T00:55:18.580Z,173.49
2023-05-19T00:56:18.573Z,174.74
2023-05-19T00:57:18.576Z,169.20
2023-05-19T00:58:18.581Z,168.64
2023-05-19T00:59:18.587Z,171.32
2023-05-19T01:00:18.599Z,172.33
2023-05-19T01:01:18.624Z,171.23
2023-05-19T01:02:18.559Z,171.40
2023-05-19T01:03:18.674Z,172.20
2023-05-19T01:04:18.584Z,171.60
2023-05-19T01:05:18.566Z,171.90
2023-05-19T01:06:18.571Z,171.70
2023-05-19T01:07:18.576Z,173.47
2023-05-19T01:08:18.590Z,174.08
2023-05-19T01:09:18.593Z,172.17
2023-05-19T01:10:18.607Z,174.18
2023-05-19T01:11:18.596Z,171.75
2023-05-19T01:12:18.595Z,177.50
2023-05-19T01:13:18.579Z,174.80
2023-05-19T01:14:18.589Z,178.79
2023-05-19T01:15:18.597Z,183.65
2023-05-19T01:16:18.665Z,178.64
2023-05-19T01:17:18.592Z,175.38
2023-05-19T01:18:18.607Z,178.44
2023-05-19T01:19:18.697Z,173.70
2023-05-19T01:20:18.600Z,176.32
2023-05-19T01:21:18.612Z,180.77
2023-05-19T01:22:18.576Z,180.89
2023-05-19T01:23:18.596Z,179.91
2023-05-19T01:24:18.584Z,179.36
2023-05-19T01:25:18.604Z,179.20
2023-05-19T01:26:18.596Z,178.62
2023-05-19T01:27:18.602Z,180.73
2023-05-19T01:28:18.607Z,184.88
2023-05-19T01:29:18.592Z,180.93
2023-05-19T01:30:18.587Z,179.89
2023-05-19T01:31:18.652Z,179.53
2023-05-19T01:32:18.571Z,183.34
2023-05-19T01:33:18.580Z,186.26
2023-05-19T01:34:18.587Z,185.19
2023-05-19T01:35:18.561Z,181.23
2023-05-19T01:36:18.562Z,181.84
2023-05-19T01:37:18.569Z,183.31
2023-05-19T01:38:18.552Z,187.93
2023-05-19T01:39:18.565Z,186.67
2023-05-19T01:40:18.561Z,185.79
2023-05-19T01:41:18.553Z,184.91
2023-05-19T01:42:18.565Z,187.54
2023-05-19T01:43:18.540Z,186.78
2023-05-19T01:44:18.550Z,189.05
2023-05-19T01:45:18.547Z,187.19
2023-05-19T01:46:18.566Z,189.35
2023-05-19T01:47:18.537Z,189.64
2023-05-19T01:48:18.556Z,193.48
2023-05-19T01:49:18.550Z,192.84
2023-05-19T01:50:18.536Z,193.75
2023-05-19T01:51:18.534Z,193.03
2023-05-19T01:52:18.547Z,190.51
2023-05-19T01:53:18.561Z,192.80
2023-05-19T01:54:18.537Z,195.03
2023-05-19T01:55:18.530Z,195.99
2023-05-19T01:56:18.528Z,194.58
2023-05-19T01:57:18.533Z,193.13
2023-05-19T01:58:18.508Z,194.35
2023-05-19T01:59:18.508Z,195.44
2023-05-19T02:00:19.358Z,190.18
2023-05-19T02:01:18.795Z,198.19
2023-05-19T02:02:18.743Z,195.39
2023-05-19T02:03:18.755Z,197.94
2023-05-19T02:04:18.835Z,195.36
2023-05-19T02:05:18.768Z,193.89
2023-05-19T02:06:18.770Z,195.01
2023-05-19T02:07:18.752Z,191.31
2023-05-19T02:08:18.749Z,192.42
2023-05-19T02:09:18.749Z,195.18
2023-05-19T02:10:18.754Z,191.74
2023-05-19T02:11:18.767Z,192.41
2023-05-19T02:12:18.772Z,194.26
2023-05-19T02:13:18.754Z,196.16
2023-05-19T02:14:18.754Z,197.51
2023-05-19T02:15:18.778Z,194.08
2023-05-19T02:16:18.927Z,196.84
2023-05-19T02:17:18.770Z,196.81
2023-05-19T02:18:18.760Z,193.16
2023-05-19T02:19:18.800Z,195.55
2023-05-19T02:20:18.748Z,191.73
2023-05-19T02:21:18.754Z,191.67
2023-05-19T02:22:18.765Z,193.90
2023-05-19T02:23:18.764Z,194.92
2023-05-19T02:24:18.750Z,197.04
2023-05-19T02:25:18.780Z,200.94
2023-05-19T02:26:18.765Z,199.99
2023-05-19T02:27:18.770Z,202.48
2023-05-19T02:28:18.772Z,196.33
2023-05-19T02:29:18.792Z,196.50
2023-05-19T02:30:18.773Z,196.79
2023-05-19T02:31:18.804Z,197.66
2023-05-19T02:32:18.845Z,198.06
2023-05-19T02:33:18.800Z,198.56
2023-05-19T02:34:18.772Z,199.57
2023-05-19T02:35:18.777Z,198.10
2023-05-19T02:36:18.792Z,197.14
2023-05-19T02:37:18.806Z,197.23
2023-05-19T02:38:18.790Z,196.91
2023-05-19T02:39:18.800Z,197.53
2023-05-19T02:40:18.792Z,199.82
2023-05-19T02:41:18.790Z,201.62
2023-05-19T02:42:18.817Z,199.42
2023-05-19T02:43:18.800Z,201.13
2023-05-19T02:44:18.790Z,200.68
2023-05-19T02:45:18.798Z,199.84
2023-05-19T02:46:18.815Z,203.44
2023-05-19T02:47:18.806Z,204.38
2023-05-19T02:48:18.810Z,201.05
2023-05-19T02:49:18.817Z,202.77
2023-05-19T02:50:18.809Z,200.92
2023-05-19T02:51:18.808Z,206.13
2023-05-19T02:52:18.820Z,203.60
2023-05-19T02:53:18.801Z,203.82
2023-05-19T02:54:18.824Z,202.60
2023-05-19T02:55:18.824Z,206.89
2023-05-19T02:56:18.825Z,205.46
2023-05-19T02:57:18.823Z,203.28
2023-05-19T02:58:18.833Z,209.19
2023-05-19T02:59:18.830Z,209.83
2023-05-19T03:00:18.855Z,214.32
2023-05-19T03:01:18.866Z,213.92
2023-05-19T03:02:18.854Z,207.05
2023-05-19T03:03:18.900Z,210.21
2023-05-19T03:04:18.869Z,211.31
2023-05-19T03:05:18.861Z,212.81
2023-05-19T03:06:18.871Z,211.92
2023-05-19T03:07:18.874Z,212.65
2023-05-19T03:08:18.892Z,213.91
2023-05-19T03:09:18.882Z,214.37
2023-05-19T03:10:18.889Z,214.86
2023-05-19T03:11:18.899Z,212.20
2023-05-19T03:12:18.908Z,210.10
2023-05-19T03:13:18.919Z,211.27
2023-05-19T03:14:18.940Z,214.04
2023-05-19T03:15:18.933Z,212.14
2023-05-19T03:16:18.978Z,217.06
2023-05-19T03:17:18.947Z,216.24
2023-05-19T03:18:18.966Z,215.81
2023-05-19T03:19:18.974Z,216.80
2023-05-19T03:20:18.918Z,220.10
2023-05-19T03:21:18.931Z,220.67
2023-05-19T03:22:18.912Z,220.46
2023-05-19T03:23:18.918Z,222.70
2023-05-19T03:24:18.932Z,220.82
2023-05-19T03:25:18.943Z,219.11
2023-05-19T03:26:18.944Z,214.53
2023-05-19T03:27:18.948Z,217.21
2023-05-19T03:28:18.964Z,220.85
2023-05-19T03:29:18.962Z,219.76
2023-05-19T03:30:18.965Z,222.75
2023-05-19T03:31:19.012Z,224.08
2023-05-19T03:32:19.032Z,223.88
2023-05-19T03:33:19.096Z,226.19
2023-05-19T03:34:19.025Z,224.52
2023-05-19T03:35:19.031Z,221.65
2023-05-19T03:36:19.052Z,225.23
2023-05-19T03:37:19.072Z,228.53
2023-05-19T03:38:19.050Z,228.13
2023-05-19T03:39:19.054Z,224.30
2023-05-19T03:40:19.082Z,229.60
2023-05-19T03:41:19.071Z,226.97
2023-05-19T03:42:19.069Z,226.15
2023-05-19T03:43:19.073Z,224.47
2023-05-19T03:44:19.105Z,221.93
2023-05-19T03:45:19.110Z,227.35
2023-05-19T03:46:19.129Z,227.65
2023-05-19T03:47:19.106Z,228.88
2023-05-19T03:48:21.201Z,227.40
2023-05-19T03:49:19.130Z,228.64
2023-05-19T03:50:19.121Z,228.98
2023-05-19T03:51:19.118Z,231.95
2023-05-19T03:52:19.133Z,232.39
2023-05-19T03:53:19.120Z,235.52
2023-05-19T03:54:19.133Z,232.08
2023-05-19T03:55:19.137Z,230.62
2023-05-19T03:56:19.146Z,231.08
2023-05-19T03:57:19.135Z,233.39
2023-05-19T03:58:19.175Z,232.70
2023-05-19T03:59:19.130Z,232.71
2023-05-19T04:00:19.134Z,231.67
2023-05-19T04:01:19.161Z,234.08
2023-05-19T04:02:19.480Z,235.17
2023-05-19T04:03:19.255Z,234.42
2023-05-19T04:04:19.226Z,231.85
2023-05-19T04:05:19.181Z,235.43
2023-05-19T04:06:19.221Z,239.33
2023-05-19T04:07:19.195Z,238.35
2023-05-19T04:08:19.198Z,240.81
2023-05-19T04:09:19.196Z,238.72
2023-05-19T04:10:19.210Z,238.28
2023-05-19T04:11:19.212Z,238.88
2023-05-19T04:12:19.233Z,236.43
2023-05-19T04:13:19.220Z,232.60
2023-05-19T04:14:19.225Z,236.77
2023-05-19T04:15:19.244Z,235.13
2023-05-19T04:16:19.277Z,237.19
2023-05-19T04:17:19.267Z,239.38
2023-05-19T04:18:19.256Z,235.97
2023-05-19T04:19:19.518Z,236.84
2023-05-19T04:20:19.267Z,235.04
2023-05-19T04:21:19.282Z,238.65
2023-05-19T04:22:19.259Z,239.39
2023-05-19T04:23:19.278Z,238.49
2023-05-19T04:24:19.283Z,239.65
2023-05-19T04:25:19.276Z,240.03
2023-05-19T04:26:19.266Z,236.22
2023-05-19T04:27:19.286Z,237.37
2023-05-19T04:28:19.278Z,239.98
2023-05-19T04:29:19.292Z,240.27
2023-05-19T04:30:19.298Z,238.02
2023-05-19T04:31:19.317Z,244.38
2023-05-19T04:32:19.295Z,240.23
2023-05-19T04:33:19.299Z,236.79
2023-05-19T04:34:19.295Z,232.11
2023-05-19T04:35:19.283Z,236.28
2023-05-19T04:36:19.285Z,234.99
2023-05-19T04:37:19.300Z,235.51
2023-05-19T04:38:19.288Z,232.47
2023-05-19T04:39:19.299Z,229.70
2023-05-19T04:40:19.305Z,231.91
2023-05-19T04:41:19.311Z,235.29
2023-05-19T04:42:19.377Z,234.72
2023-05-19T04:43:19.289Z,230.63
2023-05-19T04:44:19.325Z,230.08
2023-05-19T04:45:19.312Z,227.51
2023-05-19T04:46:19.332Z,227.13
2023-05-19T04:47:19.296Z,228.54
2023-05-19T04:48:19.293Z,230.00
2023-05-19T04:49:19.319Z,229.06
2023-05-19T04:50:19.292Z,228.01
2023-05-19T04:51:19.298Z,226.79
2023-05-19T04:52:19.286Z,222.23
2023-05-19T04:53:19.282Z,223.01
2023-05-19T04:54:19.282Z,219.02
2023-05-19T04:55:19.278Z,218.59
2023-05-19T04:56:19.281Z,222.57
2023-05-19T04:57:19.304Z,222.88
2023-05-19T04:58:19.326Z,225.55
2023-05-19T04:59:19.369Z,219.96
2023-05-19T05:00:19.397Z,219.90
2023-05-19T05:01:19.478Z,218.03
2023-05-19T05:02:19.528Z,221.46
2023-05-19T05:03:19.488Z,217.10
2023-05-19T05:04:19.452Z,218.91
2023-05-19T05:05:19.445Z,221.40
2023-05-19T05:06:19.452Z,220.13
2023-05-19T05:07:19.490Z,225.18
2023-05-19T05:08:19.487Z,224.76
2023-05-19T05:09:19.477Z,224.71
2023-05-19T05:10:19.483Z,222.70
2023-05-19T05:11:19.506Z,223.02
2023-05-19T05:12:19.482Z,226.40
2023-05-19T05:13:19.486Z,220.48
2023-05-19T05:14:19.488Z,220.25
2023-05-19T05:15:19.462Z,212.09
2023-05-19T05:16:19.497Z,207.38
2023-05-19T05:17:19.476Z,203.92
2023-05-19T05:18:19.472Z,200.60
2023-05-19T05:19:19.466Z,197.48
2023-05-19T05:20:19.475Z,199.75
2023-05-19T05:21:19.491Z,196.52
2023-05-19T05:22:19.500Z,194.59
2023-05-19T05:23:19.491Z,191.95
2023-05-19T05:24:19.468Z,203.14
2023-05-19T05:25:19.478Z,206.37
2023-05-19T05:26:19.505Z,199.74
2023-05-19T05:27:19.473Z,205.88
2023-05-19T05:28:19.491Z,205.63
2023-05-19T05:29:19.473Z,198.31
2023-05-19T05:30:19.503Z,203.95
2023-05-19T05:31:19.482Z,199.95
2023-05-19T05:32:19.497Z,200.50
2023-05-19T05:33:19.588Z,192.81
2023-05-19T05:34:19.493Z,188.83
2023-05-19T05:35:19.471Z,189.47
2023-05-19T05:36:19.479Z,189.90
2023-05-19T05:37:19.483Z,190.63
2023-05-19T05:38:19.524Z,191.25
2023-05-19T05:39:19.491Z,185.47
2023-05-19T05:40:19.501Z,185.18
2023-05-19T05:41:19.513Z,179.30
2023-05-19T05:42:19.508Z,181.73
2023-05-19T05:43:19.508Z,182.42
2023-05-19T05:44:19.541Z,192.67
2023-05-19T05:45:19.505Z,185.43
2023-05-19T05:46:19.540Z,182.78
2023-05-19T05:47:19.518Z,183.45
2023-05-19T05:48:19.525Z,183.53
2023-05-19T05:49:19.537Z,182.80
2023-05-19T05:50:19.572Z,186.36
2023-05-19T05:51:19.560Z,183.29
2023-05-19T05:52:19.585Z,184.27
2023-05-19T05:53:19.614Z,180.93
2023-05-19T05:54:19.641Z,184.13
2023-05-19T05:55:19.674Z,186.17
2023-05-19T05:56:19.702Z,183.68
2023-05-19T05:57:19.736Z,183.20
2023-05-19T05:58:19.783Z,184.31
2023-05-19T05:59:19.796Z,186.78
2023-05-19T06:00:19.838Z,188.04
2023-05-19T06:01:19.866Z,184.77
2023-05-19T06:02:19.911Z,183.78
2023-05-19T06:03:20.010Z,185.24
2023-05-19T06:04:19.948Z,183.22
2023-05-19T06:05:19.988Z,187.01
2023-05-19T06:06:19.944Z,187.53
2023-05-19T06:07:19.954Z,189.82
2023-05-19T06:08:19.984Z,189.44
2023-05-19T06:09:19.997Z,190.89
2023-05-19T06:10:20.030Z,191.71
2023-05-19T06:11:20.051Z,190.51
2023-05-19T06:12:20.070Z,189.04
2023-05-19T06:13:20.114Z,189.38
2023-05-19T06:14:20.146Z,186.89
2023-05-19T06:15:20.168Z,188.45
2023-05-19T06:16:20.275Z,187.62
2023-05-19T06:17:20.264Z,193.49
2023-05-19T06:18:20.296Z,194.70
2023-05-19T06:19:20.394Z,189.40
2023-05-19T06:20:20.402Z,192.61
2023-05-19T06:21:20.489Z,204.40
2023-05-19T06:22:20.521Z,207.58
2023-05-19T06:23:20.574Z,209.73
2023-05-19T06:24:20.653Z,206.73
2023-05-19T06:25:20.704Z,204.75
2023-05-19T06:26:20.773Z,203.64
2023-05-19T06:27:20.826Z,209.83
2023-05-19T06:28:20.882Z,207.00
2023-05-19T06:29:20.926Z,214.73
2023-05-19T06:30:20.972Z,216.65
2023-05-19T06:31:21.096Z,215.22
2023-05-19T06:32:21.066Z,209.99
2023-05-19T06:33:21.119Z,212.01
2023-05-19T06:34:21.205Z,210.93
2023-05-19T06:35:21.232Z,206.59
2023-05-19T06:36:21.304Z,204.72
2023-05-19T06:37:21.352Z,209.53
2023-05-19T06:38:21.434Z,208.36
2023-05-19T06:39:21.493Z,209.92
2023-05-19T06:40:21.543Z,206.51
2023-05-19T06:41:21.626Z,207.81
2023-05-19T06:42:21.686Z,204.56
2023-05-19T06:43:21.702Z,204.48
2023-05-19T06:44:21.774Z,205.22
2023-05-19T06:45:21.836Z,207.80
2023-05-19T06:46:21.900Z,208.24
2023-05-19T06:47:21.927Z,211.77
2023-05-19T06:48:21.989Z,212.55
2023-05-19T06:49:22.041Z,212.28
2023-05-19T06:50:22.104Z,213.18
2023-05-19T06:51:22.146Z,218.76
2023-05-19T06:52:22.218Z,220.92
2023-05-19T06:53:22.278Z,228.22
2023-05-19T06:54:22.399Z,232.62
2023-05-19T06:55:22.414Z,241.83
2023-05-19T06:56:22.476Z,239.87
2023-05-19T06:57:22.506Z,240.01
2023-05-19T06:58:22.549Z,250.00
2023-05-19T06:59:22.619Z,249.69
2023-05-19T07:00:23.981Z,249.55
2023-05-19T07:01:22.839Z,248.19
2023-05-19T07:02:22.767Z,246.81
2023-05-19T07:03:22.875Z,247.58
2023-05-19T07:04:22.882Z,246.35
2023-05-19T07:05:22.939Z,248.98
2023-05-19T07:06:23.054Z,248.34
2023-05-19T07:07:23.053Z,248.83
2023-05-19T07:08:23.114Z,245.98
2023-05-19T07:09:23.156Z,247.21
2023-05-19T07:10:23.215Z,247.71
2023-05-19T07:11:23.261Z,248.10
2023-05-19T07:12:23.309Z,246.96
2023-05-19T07:13:25.317Z,245.88
2023-05-19T07:14:23.373Z,248.70
2023-05-19T07:15:23.345Z,246.09
2023-05-19T07:16:23.380Z,246.77
2023-05-19T07:17:23.404Z,246.98
2023-05-19T07:18:23.333Z,250.00
2023-05-19T07:19:23.345Z,245.46
2023-05-19T07:20:23.308Z,243.08
2023-05-19T07:21:23.315Z,249.99
2023-05-19T07:22:23.294Z,246.51
2023-05-19T07:23:23.293Z,245.93
2023-05-19T07:24:23.298Z,247.73
2023-05-19T07:25:23.272Z,242.46
2023-05-19T07:26:23.269Z,242.16
2023-05-19T07:27:23.278Z,246.25
2023-05-19T07:28:23.264Z,244.29
2023-05-19T07:29:23.260Z,244.65
2023-05-19T07:30:23.240Z,236.79
2023-05-19T07:31:23.297Z,234.67
2023-05-19T07:32:23.436Z,245.04
2023-05-19T07:33:23.220Z,246.07
2023-05-19T07:34:23.235Z,242.98
2023-05-19T07:35:23.242Z,239.86
2023-05-19T07:36:23.211Z,238.22
2023-05-19T07:37:23.215Z,237.50
2023-05-19T07:38:23.191Z,234.08
2023-05-19T07:39:23.213Z,238.72
2023-05-19T07:40:23.197Z,236.36
2023-05-19T07:41:23.206Z,229.36
2023-05-19T07:42:23.179Z,225.80
2023-05-19T07:43:23.171Z,227.05
2023-05-19T07:44:23.174Z,225.17
2023-05-19T07:45:23.180Z,222.69
2023-05-19T07:46:23.202Z,226.48
2023-05-19T07:47:23.131Z,222.67
2023-05-19T07:48:23.155Z,224.78
2023-05-19T07:49:23.119Z,219.37
2023-05-19T07:50:23.112Z,214.63
2023-05-19T07:51:23.116Z,216.96
2023-05-19T07:52:23.114Z,217.02
2023-05-19T07:53:23.112Z,214.81
2023-05-19T07:54:23.080Z,213.28
2023-05-19T07:55:23.130Z,210.16
2023-05-19T07:56:23.065Z,214.87
2023-05-19T07:57:23.082Z,214.20
2023-05-19T07:58:23.076Z,220.35
2023-05-19T07:59:23.060Z,225.13
2023-05-19T08:00:23.048Z,219.62
2023-05-19T08:01:23.036Z,220.05
2023-05-19T08:02:23.114Z,227.47
2023-05-19T08:03:23.106Z,221.83
2023-05-19T08:04:23.088Z,223.50
2023-05-19T08:05:23.054Z,226.24
2023-05-19T08:06:23.061Z,228.39
2023-05-19T08:07:23.061Z,229.15
2023-05-19T08:08:23.090Z,227.38
2023-05-19T08:09:23.100Z,224.71
2023-05-19T08:10:23.072Z,224.92
2023-05-19T08:11:23.084Z,223.74
2023-05-19T08:12:23.094Z,226.19
2023-05-19T08:13:23.060Z,225.88
2023-05-19T08:14:23.094Z,228.00
2023-05-19T08:15:23.111Z,227.77
2023-05-19T08:16:23.168Z,223.32
2023-05-19T08:17:23.236Z,227.99
2023-05-19T08:18:23.100Z,225.73
2023-05-19T08:19:23.180Z,227.80
2023-05-19T08:20:23.196Z,228.15
2023-05-19T08:21:23.165Z,228.38
2023-05-19T08:22:23.206Z,228.32
2023-05-19T08:23:23.196Z,227.17
2023-05-19T08:24:23.202Z,229.11
2023-05-19T08:25:23.205Z,230.14
2023-05-19T08:26:23.200Z,227.30
2023-05-19T08:27:23.192Z,227.81
2023-05-19T08:28:23.185Z,225.69
2023-05-19T08:29:23.203Z,225.29
2023-05-19T08:30:23.267Z,224.39
2023-05-19T08:31:23.235Z,225.35
2023-05-19T08:32:23.282Z,225.18
2023-05-19T08:33:23.235Z,227.08
2023-05-19T08:34:23.250Z,226.22
2023-05-19T08:35:23.263Z,228.39
2023-05-19T08:36:23.272Z,227.33
2023-05-19T08:37:23.282Z,226.61
2023-05-19T08:38:23.283Z,226.29
2023-05-19T08:39:23.296Z,225.23
2023-05-19T08:40:23.391Z,225.81
2023-05-19T08:41:23.366Z,225.55
2023-05-19T08:42:23.369Z,226.19
2023-05-19T08:43:23.387Z,224.05
2023-05-19T08:44:23.393Z,228.59
2023-05-19T08:45:23.432Z,228.17
2023-05-19T08:46:23.447Z,226.55
2023-05-19T08:47:23.445Z,228.55
2023-05-19T08:48:23.443Z,227.55
2023-05-19T08:49:25.472Z,229.71
2023-05-19T08:50:23.565Z,229.93
2023-05-19T08:51:23.497Z,228.05
2023-05-19T08:52:23.546Z,229.73
2023-05-19T08:53:33.387Z,230.16
2023-05-19T08:54:24.516Z,230.29
2023-05-19T08:55:23.504Z,230.62
2023-05-19T08:56:23.512Z,231.91
2023-05-19T08:57:23.515Z,231.35
2023-05-19T08:58:23.506Z,235.32
2023-05-19T08:59:23.484Z,233.24
2023-05-19T09:00:23.637Z,237.37
2023-05-19T09:01:23.549Z,238.51
2023-05-19T09:02:23.593Z,238.78
2023-05-19T09:03:24.133Z,242.60
2023-05-19T09:04:23.511Z,245.93
2023-05-19T09:05:23.494Z,248.31
2023-05-19T09:06:23.552Z,246.50
2023-05-19T09:07:23.430Z,238.64
2023-05-19T09:08:23.432Z,233.98
2023-05-19T09:09:23.436Z,231.73
2023-05-19T09:10:23.420Z,229.04
2023-05-19T09:11:23.416Z,230.33
2023-05-19T09:12:23.411Z,231.08
2023-05-19T09:13:23.393Z,231.67
2023-05-19T09:14:23.389Z,228.06
2023-05-19T09:15:23.378Z,231.06
2023-05-19T09:16:23.378Z,231.31
2023-05-19T09:17:23.395Z,230.25
2023-05-19T09:18:23.345Z,226.43
2023-05-19T09:19:23.439Z,228.25
2023-05-19T09:20:23.353Z,231.76
2023-05-19T09:21:23.334Z,232.95
2023-05-19T09:22:23.321Z,232.98
2023-05-19T09:23:23.327Z,227.07
2023-05-19T09:24:23.381Z,228.73
2023-05-19T09:25:23.389Z,229.19
2023-05-19T09:26:23.496Z,226.82
2023-05-19T09:27:23.450Z,227.81
2023-05-19T09:28:23.470Z,223.77
2023-05-19T09:29:23.513Z,225.24
2023-05-19T09:30:23.541Z,225.36
2023-05-19T09:31:23.592Z,224.63
2023-05-19T09:32:23.636Z,223.05
2023-05-19T09:33:23.659Z,224.87
2023-05-19T09:34:23.719Z,221.49
2023-05-19T09:35:23.767Z,223.99
2023-05-19T09:36:23.839Z,225.98
2023-05-19T09:37:23.886Z,223.20
2023-05-19T09:38:23.961Z,223.47
2023-05-19T09:39:24.043Z,224.97
2023-05-19T09:40:24.031Z,224.41
2023-05-19T09:41:24.080Z,224.37
2023-05-19T09:42:24.128Z,223.67
2023-05-19T09:43:24.198Z,224.96
2023-05-19T09:44:24.249Z,225.24
2023-05-19T09:45:24.315Z,224.53
2023-05-19T09:46:24.385Z,224.44
2023-05-19T09:47:24.452Z,221.93
2023-05-19T09:48:24.495Z,221.85
2023-05-19T09:49:24.556Z,223.71
2023-05-19T09:50:24.589Z,222.21
2023-05-19T09:51:24.653Z,224.14
2023-05-19T09:52:24.722Z,225.37
2023-05-19T09:53:24.775Z,226.91
2023-05-19T09:54:24.820Z,226.52
2023-05-19T09:55:24.851Z,222.54
2023-05-19T09:56:24.942Z,226.22
2023-05-19T09:57:24.948Z,226.39
2023-05-19T09:58:24.970Z,225.02
2023-05-19T09:59:24.946Z,228.12
2023-05-19T10:00:24.951Z,232.02
2023-05-19T10:01:24.995Z,234.22
2023-05-19T10:02:24.979Z,232.78
2023-05-19T10:03:24.973Z,236.16
2023-05-19T10:04:24.998Z,236.26
2023-05-19T10:05:24.994Z,239.20
2023-05-19T10:06:24.983Z,237.90
2023-05-19T10:07:25.001Z,238.90
2023-05-19T10:08:24.979Z,239.06
2023-05-19T10:09:24.997Z,237.96
2023-05-19T10:10:24.992Z,237.79
2023-05-19T10:11:25.016Z,241.22
2023-05-19T10:12:25.029Z,238.52
2023-05-19T10:13:25.039Z,242.09
2023-05-19T10:14:25.044Z,245.81
2023-05-19T10:15:25.032Z,242.67
2023-05-19T10:16:25.097Z,243.40
2023-05-19T10:17:25.111Z,241.94
2023-05-19T10:18:25.066Z,243.82
2023-05-19T10:19:25.078Z,248.97
2023-05-19T10:20:25.052Z,249.04
2023-05-19T10:21:25.049Z,248.26
2023-05-19T10:22:25.084Z,247.75
2023-05-19T10:23:25.055Z,249.23
2023-05-19T10:24:25.075Z,245.44
2023-05-19T10:25:25.082Z,247.09
2023-05-19T10:26:25.079Z,246.45
2023-05-19T10:27:25.067Z,249.20
2023-05-19T10:28:25.061Z,249.89
2023-05-19T10:29:25.082Z,250.00
2023-05-19T10:30:25.074Z,246.81
2023-05-19T10:31:25.082Z,245.86
2023-05-19T10:32:25.136Z,243.65
2023-05-19T10:33:25.130Z,248.90
2023-05-19T10:34:25.070Z,248.03
2023-05-19T10:35:25.093Z,245.46
2023-05-19T10:36:25.099Z,243.29
2023-05-19T10:37:25.073Z,240.11
2023-05-19T10:38:25.090Z,239.64
2023-05-19T10:39:25.093Z,240.68
2023-05-19T10:40:25.097Z,240.89
2023-05-19T10:41:25.112Z,241.15
2023-05-19T10:42:25.121Z,237.76
2023-05-19T10:43:25.128Z,240.60
2023-05-19T10:44:25.142Z,240.01
2023-05-19T10:45:25.185Z,233.88
2023-05-19T10:46:25.476Z,241.98
2023-05-19T10:47:25.272Z,241.44
2023-05-19T10:48:25.262Z,240.04
2023-05-19T10:49:25.281Z,239.24
2023-05-19T10:50:25.311Z,237.16
2023-05-19T10:51:25.353Z,230.71
2023-05-19T10:52:25.376Z,229.91
2023-05-19T10:53:25.419Z,231.48
2023-05-19T10:54:25.468Z,226.50
2023-05-19T10:55:25.510Z,223.95
2023-05-19T10:56:25.572Z,222.10
2023-05-19T10:57:25.645Z,222.06
2023-05-19T10:58:25.682Z,219.05
2023-05-19T10:59:27.325Z,221.76
2023-05-19T11:00:25.821Z,218.80
2023-05-19T11:01:25.930Z,217.29
2023-05-19T11:02:26.144Z,211.81
2023-05-19T11:03:26.001Z,213.33
2023-05-19T11:04:26.123Z,208.73
2023-05-19T11:05:26.107Z,213.22
2023-05-19T11:06:26.170Z,204.88
2023-05-19T11:07:26.233Z,207.10
2023-05-19T11:08:26.277Z,208.79
2023-05-19T11:09:37.986Z,207.49
2023-05-19T11:10:27.345Z,207.65
2023-05-19T11:11:26.315Z,206.90
2023-05-19T11:12:26.344Z,204.17
2023-05-19T11:13:26.490Z,202.46
2023-05-19T11:14:26.330Z,198.71
2023-05-19T11:15:26.379Z,199.66
2023-05-19T11:16:26.359Z,201.86
2023-05-19T11:17:26.340Z,196.69
2023-05-19T11:18:26.336Z,195.60
2023-05-19T11:19:26.448Z,201.15
2023-05-19T11:20:26.449Z,200.46
2023-05-19T11:21:26.533Z,197.97
2023-05-19T11:22:26.541Z,199.86
2023-05-19T11:23:26.641Z,198.98
2023-05-19T11:24:26.638Z,202.31
2023-05-19T11:25:26.662Z,202.13
2023-05-19T11:26:26.706Z,207.84
2023-05-19T11:27:26.715Z,205.26
2023-05-19T11:28:26.836Z,204.29
2023-05-19T11:29:26.776Z,207.99
2023-05-19T11:30:26.795Z,206.71
2023-05-19T11:31:26.868Z,213.09
2023-05-19T11:32:26.910Z,212.75
2023-05-19T11:33:26.888Z,212.23
2023-05-19T11:34:26.894Z,215.28
2023-05-19T11:35:26.939Z,215.12
2023-05-19T11:36:26.935Z,219.03
2023-05-19T11:37:26.987Z,219.59
2023-05-19T11:38:27.024Z,213.92
2023-05-19T11:39:27.013Z,215.87
2023-05-19T11:40:27.034Z,219.36
2023-05-19T11:41:27.074Z,217.93
2023-05-19T11:42:27.103Z,222.50
2023-05-19T11:43:27.180Z,221.66
2023-05-19T11:44:27.176Z,224.70
2023-05-19T11:45:27.219Z,223.48
2023-05-19T11:46:27.307Z,220.84
2023-05-19T11:47:27.271Z,214.49
2023-05-19T11:48:27.332Z,216.13
2023-05-19T11:49:27.347Z,217.22
2023-05-19T11:50:27.355Z,221.73
2023-05-19T11:51:27.344Z,220.64
2023-05-19T11:52:27.385Z,216.37
2023-05-19T11:53:27.371Z,218.44
2023-05-19T11:54:27.385Z,217.85
2023-05-19T11:55:27.416Z,216.60
2023-05-19T11:56:27.410Z,225.54
2023-05-19T11:57:27.409Z,217.16
2023-05-19T11:58:27.426Z,228.14
2023-05-19T11:59:27.445Z,232.19
2023-05-19T12:00:27.435Z,234.47
2023-05-19T12:01:27.460Z,233.14
2023-05-19T12:02:27.562Z,234.27
2023-05-19T12:03:27.557Z,236.68
2023-05-19T12:04:27.524Z,231.80
2023-05-19T12:05:27.554Z,229.71
2023-05-19T12:06:27.588Z,227.92
2023-05-19T12:07:27.604Z,227.65
2023-05-19T12:08:27.637Z,221.74
2023-05-19T12:09:27.689Z,227.06
2023-05-19T12:10:27.741Z,231.12
2023-05-19T12:11:27.784Z,226.50
2023-05-19T12:12:27.833Z,228.84
2023-05-19T12:13:27.868Z,222.70
2023-05-19T12:14:27.929Z,226.78
2023-05-19T12:15:27.980Z,226.57
2023-05-19T12:16:28.092Z,226.10
2023-05-19T12:17:28.110Z,223.08
2023-05-19T12:19:40.637Z,25.00
2023-05-19T12:20:40.621Z,25.00
2023-05-19T12:21:40.668Z,25.00
2023-05-19T12:22:40.609Z,25.00
2023-05-19T12:23:40.597Z,25.00
2023-05-19T12:24:40.575Z,32.68
2023-05-19T12:25:40.589Z,25.00
2023-05-19T12:26:40.574Z,28.56
2023-05-19T12:27:40.591Z,25.39
2023-05-19T12:28:40.548Z,25.97
2023-05-19T12:29:40.569Z,28.77